Date,TemperatureHighF,TemperatureAvgF,TemperatureLowF,DewpointHighF,DewpointAvgF,DewpointLowF,HumidityHigh,HumidityAvg,HumidityLow,PressureMaxIn,PressureMinIn,WindSpeedMaxMPH,WindSpeedAvgMPH,GustSpeedMaxMPH,PrecipitationSumIn
2013-7-31,76.6,72.5,66.7,61.0,59.2,57.0,82,64,52,30.02,29.89,4,1,5,0.00
2013-8-1,72.0,69.8,66.1,68.0,64.4,61.0,94,83,75,29.88,29.75,21,9,27,0.09
2013-8-2,72.4,54.0,62.3,67.0,29.5,-99.9,96,68,69,29.86,29.79,21,-201,28,0.05
2013-8-3,72.5,69.0,64.7,67.0,61.2,57.0,87,77,62,29.93,29.79,20,10,27,0.00
2013-8-4,70.7,59.0,58.4,62.0,41.5,-99.9,89,67,54,30.05,29.93,15,-86,20,0.00
2013-8-5,70.7,62.5,52.0,56.0,52.8,49.0,90,72,53,30.10,29.99,8,3,9,0.00
2013-8-6,78.8,68.2,56.5,65.0,57.9,54.0,91,71,54,30.01,29.92,8,2,10,0.00
2013-8-7,82.1,73.3,66.4,72.0,65.1,60.0,94,76,59,29.93,29.81,13,5,35,0.16
2013-8-8,73.1,32.0,67.1,70.0,-23.4,-99.9,97,41,76,29.92,29.84,10,-538,16,0.20
2013-8-9,72.3,41.3,63.9,70.0,-1.3,-99.9,97,51,75,29.92,29.82,18,-395,22,0.16
2013-8-10,71.7,57.6,64.8,66.0,33.9,-99.9,90,61,53,30.06,29.92,14,-151,21,0.00
2013-8-11,72.6,54.2,56.2,58.0,28.8,-99.9,92,62,52,30.11,30.01,7,-157,9,0.00
2013-8-12,74.3,60.3,62.0,66.0,41.9,-99.9,85,68,64,30.02,29.82,17,-113,17,0.04
2013-8-13,69.1,43.6,59.9,66.0,7.8,-99.9,96,59,67,29.88,29.73,15,-329,20,0.10
2013-8-14,69.0,62.5,56.6,57.0,53.0,47.0,90,73,48,30.07,29.86,19,10,22,0.00
2013-8-15,70.2,58.3,54.6,58.0,40.0,-99.9,85,64,54,30.11,30.06,18,-84,21,0.00
2013-8-16,73.3,62.5,56.1,61.0,49.4,-99.9,89,70,56,30.18,30.09,8,-39,11,0.00
2013-8-17,77.6,52.9,55.0,64.0,27.4,-99.9,93,62,45,30.25,30.17,7,-186,9,0.00
2013-8-18,75.0,33.7,59.4,64.0,-17.9,-99.9,89,41,61,30.21,30.08,4,-478,7,0.00
2013-8-19,73.7,26.1,66.2,68.0,-40.5,-99.9,89,30,78,30.09,30.01,9,-629,12,0.00
2013-8-20,75.4,49.7,62.3,71.0,17.1,-99.9,88,58,71,30.11,30.04,11,-277,13,0.00
2013-8-21,77.2,33.2,63.1,69.0,-22.8,-99.9,87,37,67,30.13,29.99,8,-524,11,0.00
2013-8-22,75.5,72.5,68.6,72.0,67.7,58.0,94,85,65,30.00,29.89,20,8,25,0.00
2013-8-23,76.7,67.5,57.5,61.0,56.8,52.0,94,71,43,30.17,29.97,10,2,18,0.00
2013-8-24,79.5,63.2,51.0,58.0,48.3,-99.9,95,67,37,30.32,30.17,6,-31,10,0.00
2013-8-25,77.1,49.1,55.3,65.0,18.0,-99.9,91,57,62,30.30,30.12,13,-240,16,0.00
2013-8-26,76.0,65.9,70.0,70.0,49.4,-99.9,94,71,63,30.13,29.91,25,-92,28,0.68
2013-8-27,76.3,68.5,69.3,74.0,61.0,-99.9,96,88,90,29.92,29.83,12,-51,17,0.22
2013-8-28,84.1,72.3,69.8,73.0,65.1,-99.9,98,85,67,29.91,29.80,7,-32,11,0.17
2013-8-29,79.8,65.5,64.4,74.0,51.9,-99.9,99,80,78,30.01,29.91,7,-104,8,0.00
2013-8-30,77.5,72.5,67.4,72.0,64.1,-99.9,95,81,74,29.97,29.71,10,-26,15,0.00
2013-8-31,76.2,27.0,70.6,72.0,-37.6,-99.9,95,32,82,29.80,29.68,12,-631,19,0.28
2013-9-1,81.2,66.6,67.0,74.0,55.4,-99.9,97,82,74,29.79,29.71,8,-82,10,0.12
2013-9-2,76.4,41.2,68.8,73.0,-3.4,-99.9,95,52,87,29.77,29.67,14,-428,17,0.00
2013-9-3,-200.0,0.0,200.0,-99.9,-99.9,-99.9,0,0,100,29.94,29.76,0,-999,0,0.00
2013-9-4,71.9,36.8,59.9,68.0,-12.2,-99.9,92,44,57,29.98,29.93,23,-451,30,0.11
2013-9-5,68.3,60.4,51.3,64.0,50.6,38.0,94,72,41,30.21,29.95,16,5,18,0.00
2013-9-6,65.2,37.0,45.0,53.0,1.9,-99.9,92,55,51,30.27,30.08,8,-300,10,0.00
2013-9-7,67.7,62.5,57.1,63.0,54.4,48.0,95,76,56,30.08,29.86,20,6,23,0.39
2013-9-8,68.7,53.0,51.9,67.0,29.8,-99.9,95,64,50,30.08,29.83,10,-166,15,0.12
2013-9-9,70.1,19.2,46.3,65.0,-43.1,-99.9,94,35,83,30.10,29.93,9,-614,17,0.00
2013-9-10,83.2,61.1,70.2,74.0,34.6,-99.9,87,62,66,29.97,29.88,18,-200,25,0.02
2013-9-11,82.2,78.8,71.6,75.0,72.5,68.0,92,81,75,30.00,29.86,18,7,30,0.00
2013-9-12,72.6,35.1,69.4,70.0,-16.9,-99.9,94,44,85,29.93,29.71,14,-501,19,0.12
2013-9-13,60.6,13.1,50.6,55.0,-66.6,-99.9,89,18,80,30.02,29.76,12,-769,16,0.00
2013-9-14,54.5,25.8,49.4,46.0,-27.3,-99.9,83,39,68,30.12,30.01,15,-492,19,0.00
2013-9-15,65.9,38.0,48.9,56.0,-3.2,-99.9,95,47,61,30.14,30.03,18,-333,18,0.16
2013-9-16,58.7,24.0,52.2,55.0,-33.1,-99.9,96,41,85,30.36,30.06,8,-561,12,0.02
2013-9-17,38.9,2.9,38.6,38.0,-89.6,-99.9,97,7,96,30.46,30.27,2,-925,3,0.01
2013-9-18,48.3,7.5,44.0,43.0,-76.5,-99.9,90,14,80,30.27,30.08,2,-834,3,0.00
2013-9-19,61.1,3.2,60.2,58.0,-91.6,-99.9,91,5,89,30.10,29.98,0,-946,1,0.00
2013-9-20,65.7,22.6,59.6,62.0,-41.7,-99.9,91,33,86,29.98,29.71,8,-630,10,0.00
2013-9-21,67.9,12.7,57.6,67.0,-67.8,-99.9,97,19,73,29.74,29.60,14,-800,17,2.59
2013-9-22,57.4,23.9,52.0,50.0,-35.2,-99.9,86,34,71,30.02,29.74,18,-557,19,0.00
2013-9-23,50.6,13.9,47.1,45.0,-59.6,-99.9,89,23,76,30.14,30.02,2,-720,6,0.00
2013-9-24,63.3,50.6,42.4,55.0,41.9,-99.9,95,79,64,30.15,29.99,7,-30,9,0.00
2013-9-25,71.5,50.9,42.4,55.0,38.3,-99.9,97,75,46,30.00,29.91,7,-62,9,0.00
2013-9-26,71.1,36.7,44.2,56.0,-1.3,-99.9,95,53,50,30.12,29.97,7,-332,13,0.00
2013-9-27,66.9,28.2,48.8,57.0,-21.1,-99.9,96,47,70,30.23,30.12,1,-478,6,0.00
2013-9-28,70.8,50.6,48.3,61.0,31.5,-99.9,98,72,65,30.25,30.12,7,-144,10,0.00
2013-9-29,74.1,62.7,52.6,64.0,53.0,-99.9,88,73,54,30.12,29.95,10,-9,17,0.00
2013-9-30,68.2,36.3,61.9,63.0,-10.2,-99.9,92,45,71,29.98,29.93,7,-426,10,0.00
2013-10-1,65.1,21.6,58.6,63.0,-44.4,-99.9,95,32,87,30.00,29.90,11,-651,12,0.00
2013-10-2,67.7,9.2,67.4,64.0,-77.5,-99.9,88,12,86,30.07,29.91,17,-860,20,0.00
2013-10-3,66.1,7.4,51.9,62.0,-83.0,-99.9,90,9,77,30.11,29.98,2,-883,3,0.02
2013-10-4,68.2,25.3,63.4,66.0,-36.7,-99.9,98,37,91,30.02,29.95,9,-614,13,0.03
2013-10-5,68.1,40.3,61.2,66.0,2.2,-99.9,98,60,90,30.05,29.95,6,-374,9,0.68
2013-10-6,81.8,36.9,60.2,71.0,-10.5,-99.9,99,49,66,29.94,29.64,11,-457,17,0.63
2013-10-7,75.7,23.4,56.4,66.0,-41.0,-99.9,94,32,64,30.04,29.62,22,-625,31,0.26
2013-10-8,60.6,12.3,54.3,49.0,-68.9,-99.9,79,14,62,30.31,30.04,12,-788,13,0.00
2013-10-9,60.8,17.1,43.8,51.0,-49.6,-99.9,93,30,68,30.37,30.24,5,-652,6,0.00
2013-10-10,70.1,9.9,44.9,45.0,-71.0,-99.9,91,16,34,30.26,30.11,3,-797,5,0.00
2013-10-11,52.8,9.0,45.7,49.0,-74.2,-99.9,91,16,86,30.14,30.08,1,-812,3,0.00
2013-10-12,67.7,32.0,45.0,59.0,-10.0,-99.9,94,51,48,30.16,30.06,6,-389,8,0.00
2013-10-13,68.7,50.6,58.9,62.0,22.2,-99.9,95,57,50,30.23,30.13,7,-206,16,0.00
2013-10-14,61.6,36.2,53.5,60.0,-3.6,-99.9,96,55,68,30.33,30.23,11,-355,15,0.11
2013-10-15,47.2,14.8,44.1,46.0,-54.8,-99.9,97,30,93,30.26,29.91,6,-676,7,0.00
2013-10-16,65.0,18.0,58.0,58.0,-54.5,-99.9,91,23,63,29.90,29.72,19,-702,23,0.11
2013-10-17,58.8,21.0,52.8,53.0,-44.5,-99.9,94,29,70,29.86,29.67,19,-627,27,0.83
2013-10-18,56.6,19.3,51.5,53.0,-46.5,-99.9,95,30,70,29.88,29.71,30,-634,34,0.34
2013-10-19,60.2,13.3,49.1,48.0,-63.5,-99.9,94,18,58,29.86,29.63,14,-745,20,0.23
2013-10-20,50.9,18.9,43.5,44.0,-44.6,-99.9,91,32,72,29.95,29.75,20,-595,27,0.26
2013-10-21,63.9,17.8,49.7,50.0,-52.1,-99.9,92,24,63,29.94,29.77,22,-649,22,0.26
2013-10-22,53.7,22.2,43.3,52.0,-35.7,-99.9,92,35,57,29.85,29.74,24,-540,29,0.36
2013-10-23,47.9,26.2,39.7,40.0,-16.8,-99.9,92,48,57,29.82,29.70,21,-384,23,0.01
2013-10-24,44.4,17.2,42.7,39.0,-45.9,-99.9,85,30,68,30.02,29.79,23,-595,28,0.00
2013-10-25,47.8,15.7,40.2,39.0,-50.0,-99.9,90,30,66,30.19,30.02,18,-634,27,0.03
2013-10-26,46.5,29.1,40.1,37.0,-11.4,-99.9,87,44,59,30.11,29.77,29,-322,33,0.05
2013-10-27,48.6,28.2,43.0,40.0,-15.5,-99.9,86,45,57,30.03,29.82,19,-377,23,0.00
2013-10-28,50.4,46.6,44.4,40.0,36.9,34.0,77,69,65,30.18,30.02,17,12,21,0.00